sensor_id;sensor_type;location;lat;lon;timestamp;P1;durP1;ratioP1;P2;durP2;ratioP2
55069;SDS011;40967;52.070;8.596;2024-02-16T00:00:05;1.60;;;0.80;;
55069;SDS011;40967;52.070;8.596;2024-02-16T00:02:36;1.50;;;0.90;;
55069;SDS011;40967;52.070;8.596;2024-02-16T00:05:03;1.95;;;1.02;;
55069;SDS011;40967;52.070;8.596;2024-02-16T00:07:31;1.55;;;0.80;;
55069;SDS011;40967;52.070;8.596;2024-02-16T00:10:03;1.40;;;0.77;;
55069;SDS011;40967;52.070;8.596;2024-02-16T00:12:30;1.77;;;0.93;;
55069;SDS011;40967;52.070;8.596;2024-02-16T00:14:58;1.75;;;0.80;;
55069;SDS011;40967;52.070;8.596;2024-02-16T00:17:24;2.10;;;0.90;;
55069;SDS011;40967;52.070;8.596;2024-02-16T00:19:52;1.53;;;0.70;;
55069;SDS011;40967;52.070;8.596;2024-02-16T00:22:20;1.80;;;0.80;;
55069;SDS011;40967;52.070;8.596;2024-02-16T00:24:46;2.20;;;0.90;;
55069;SDS011;40967;52.070;8.596;2024-02-16T00:27:17;2.28;;;1.00;;
55069;SDS011;40967;52.070;8.596;2024-02-16T00:29:44;2.30;;;1.10;;
55069;SDS011;40967;52.070;8.596;2024-02-16T00:32:11;2.08;;;0.90;;
55069;SDS011;40967;52.070;8.596;2024-02-16T00:34:38;2.08;;;0.90;;
55069;SDS011;40967;52.070;8.596;2024-02-16T00:37:06;1.63;;;0.80;;
55069;SDS011;40967;52.070;8.596;2024-02-16T00:39:35;1.27;;;0.77;;
55069;SDS011;40967;52.070;8.596;2024-02-16T00:42:01;1.70;;;0.70;;
55069;SDS011;40967;52.070;8.596;2024-02-16T00:44:29;1.80;;;0.80;;
55069;SDS011;40967;52.070;8.596;2024-02-16T00:46:56;2.03;;;0.80;;
55069;SDS011;40967;52.070;8.596;2024-02-16T00:49:23;1.80;;;0.82;;
55069;SDS011;40967;52.070;8.596;2024-02-16T00:51:50;1.52;;;0.70;;
55069;SDS011;40967;52.070;8.596;2024-02-16T00:54:16;1.23;;;0.70;;
55069;SDS011;40967;52.070;8.596;2024-02-16T00:56:43;1.67;;;0.70;;
55069;SDS011;40967;52.070;8.596;2024-02-16T00:59:10;1.63;;;0.70;;
55069;SDS011;40967;52.070;8.596;2024-02-16T01:01:38;1.17;;;0.60;;
55069;SDS011;40967;52.070;8.596;2024-02-16T01:04:04;1.53;;;0.73;;
55069;SDS011;40967;52.070;8.596;2024-02-16T01:06:32;1.33;;;0.70;;
55069;SDS011;40967;52.070;8.596;2024-02-16T01:08:58;0.88;;;0.50;;
55069;SDS011;40967;52.070;8.596;2024-02-16T01:11:25;1.05;;;0.60;;
55069;SDS011;40967;52.070;8.596;2024-02-16T01:13:54;1.08;;;0.63;;
55069;SDS011;40967;52.070;8.596;2024-02-16T01:16:21;1.47;;;0.67;;
55069;SDS011;40967;52.070;8.596;2024-02-16T01:18:49;0.88;;;0.60;;
55069;SDS011;40967;52.070;8.596;2024-02-16T01:21:15;1.23;;;0.68;;
55069;SDS011;40967;52.070;8.596;2024-02-16T01:23:46;1.25;;;0.65;;
55069;SDS011;40967;52.070;8.596;2024-02-16T01:26:13;1.57;;;0.70;;
55069;SDS011;40967;52.070;8.596;2024-02-16T01:28:40;0.80;;;0.60;;
55069;SDS011;40967;52.070;8.596;2024-02-16T01:31:07;1.92;;;0.70;;
55069;SDS011;40967;52.070;8.596;2024-02-16T01:33:36;1.17;;;0.60;;
55069;SDS011;40967;52.070;8.596;2024-02-16T01:36:05;1.15;;;0.65;;
55069;SDS011;40967;52.070;8.596;2024-02-16T01:38:32;1.00;;;0.50;;
55069;SDS011;40967;52.070;8.596;2024-02-16T01:40:59;1.85;;;0.82;;
55069;SDS011;40967;52.070;8.596;2024-02-16T01:43:27;1.35;;;0.70;;
55069;SDS011;40967;52.070;8.596;2024-02-16T01:45:53;1.27;;;0.70;;
55069;SDS011;40967;52.070;8.596;2024-02-16T01:48:22;1.30;;;0.70;;
55069;SDS011;40967;52.070;8.596;2024-02-16T01:50:49;0.98;;;0.50;;
55069;SDS011;40967;52.070;8.596;2024-02-16T01:53:17;0.88;;;0.50;;
55069;SDS011;40967;52.070;8.596;2024-02-16T01:55:44;1.10;;;0.63;;
55069;SDS011;40967;52.070;8.596;2024-02-16T01:58:14;1.38;;;0.63;;
55069;SDS011;40967;52.070;8.596;2024-02-16T02:00:41;1.48;;;0.77;;
55069;SDS011;40967;52.070;8.596;2024-02-16T02:03:07;0.55;;;0.40;;
55069;SDS011;40967;52.070;8.596;2024-02-16T02:05:42;0.82;;;0.47;;
55069;SDS011;40967;52.070;8.596;2024-02-16T02:08:10;1.13;;;0.50;;
55069;SDS011;40967;52.070;8.596;2024-02-16T02:10:38;1.17;;;0.70;;
55069;SDS011;40967;52.070;8.596;2024-02-16T02:13:05;1.23;;;0.60;;
55069;SDS011;40967;52.070;8.596;2024-02-16T02:15:32;1.23;;;0.60;;
55069;SDS011;40967;52.070;8.596;2024-02-16T02:17:58;1.33;;;0.60;;
55069;SDS011;40967;52.070;8.596;2024-02-16T02:20:25;1.00;;;0.55;;
55069;SDS011;40967;52.070;8.596;2024-02-16T02:22:53;1.20;;;0.60;;
55069;SDS011;40967;52.070;8.596;2024-02-16T02:25:19;1.00;;;0.50;;
55069;SDS011;40967;52.070;8.596;2024-02-16T02:27:46;0.93;;;0.50;;
55069;SDS011;40967;52.070;8.596;2024-02-16T02:30:13;1.25;;;0.50;;
55069;SDS011;40967;52.070;8.596;2024-02-16T02:32:41;1.23;;;0.60;;
55069;SDS011;40967;52.070;8.596;2024-02-16T02:35:11;1.17;;;0.60;;
55069;SDS011;40967;52.070;8.596;2024-02-16T02:37:39;1.75;;;0.70;;
55069;SDS011;40967;52.070;8.596;2024-02-16T02:40:08;0.98;;;0.50;;
55069;SDS011;40967;52.070;8.596;2024-02-16T02:42:35;1.70;;;0.50;;
55069;SDS011;40967;52.070;8.596;2024-02-16T02:45:05;0.75;;;0.40;;
55069;SDS011;40967;52.070;8.596;2024-02-16T02:47:38;1.00;;;0.45;;
55069;SDS011;40967;52.070;8.596;2024-02-16T02:50:14;1.27;;;0.60;;
55069;SDS011;40967;52.070;8.596;2024-02-16T02:52:41;0.80;;;0.40;;
55069;SDS011;40967;52.070;8.596;2024-02-16T02:55:11;1.15;;;0.40;;
55069;SDS011;40967;52.070;8.596;2024-02-16T02:57:38;0.75;;;0.40;;
55069;SDS011;40967;52.070;8.596;2024-02-16T03:00:05;0.88;;;0.50;;
55069;SDS011;40967;52.070;8.596;2024-02-16T03:02:35;1.10;;;0.50;;
55069;SDS011;40967;52.070;8.596;2024-02-16T03:05:04;1.07;;;0.60;;
55069;SDS011;40967;52.070;8.596;2024-02-16T03:07:37;0.90;;;0.50;;
55069;SDS011;40967;52.070;8.596;2024-02-16T03:10:04;0.50;;;0.30;;
55069;SDS011;40967;52.070;8.596;2024-02-16T03:12:35;0.50;;;0.40;;
55069;SDS011;40967;52.070;8.596;2024-02-16T03:15:02;1.00;;;0.52;;
55069;SDS011;40967;52.070;8.596;2024-02-16T03:17:29;0.70;;;0.50;;
55069;SDS011;40967;52.070;8.596;2024-02-16T03:19:56;0.98;;;0.45;;
55069;SDS011;40967;52.070;8.596;2024-02-16T03:22:22;0.73;;;0.50;;
55069;SDS011;40967;52.070;8.596;2024-02-16T03:24:49;0.60;;;0.40;;
55069;SDS011;40967;52.070;8.596;2024-02-16T03:27:16;1.30;;;0.50;;
55069;SDS011;40967;52.070;8.596;2024-02-16T03:29:43;0.93;;;0.53;;
55069;SDS011;40967;52.070;8.596;2024-02-16T03:32:10;1.08;;;0.57;;
55069;SDS011;40967;52.070;8.596;2024-02-16T03:34:37;0.70;;;0.47;;
55069;SDS011;40967;52.070;8.596;2024-02-16T03:37:03;0.80;;;0.50;;
55069;SDS011;40967;52.070;8.596;2024-02-16T03:39:30;0.65;;;0.40;;
55069;SDS011;40967;52.070;8.596;2024-02-16T03:41:57;0.85;;;0.40;;
55069;SDS011;40967;52.070;8.596;2024-02-16T03:44:23;1.02;;;0.60;;
55069;SDS011;40967;52.070;8.596;2024-02-16T03:46:51;0.95;;;0.47;;
55069;SDS011;40967;52.070;8.596;2024-02-16T03:49:18;0.88;;;0.40;;
55069;SDS011;40967;52.070;8.596;2024-02-16T03:51:44;1.00;;;0.60;;
55069;SDS011;40967;52.070;8.596;2024-02-16T03:54:12;1.08;;;0.50;;
55069;SDS011;40967;52.070;8.596;2024-02-16T03:56:39;0.85;;;0.50;;
55069;SDS011;40967;52.070;8.596;2024-02-16T03:59:05;1.08;;;0.50;;
55069;SDS011;40967;52.070;8.596;2024-02-16T04:01:32;0.95;;;0.50;;
55069;SDS011;40967;52.070;8.596;2024-02-16T04:04:00;1.10;;;0.60;;
55069;SDS011;40967;52.070;8.596;2024-02-16T04:06:28;0.98;;;0.50;;
55069;SDS011;40967;52.070;8.596;2024-02-16T04:08:55;0.93;;;0.50;;
55069;SDS011;40967;52.070;8.596;2024-02-16T04:11:21;1.17;;;0.60;;
55069;SDS011;40967;52.070;8.596;2024-02-16T04:13:48;1.00;;;0.50;;
55069;SDS011;40967;52.070;8.596;2024-02-16T04:16:15;0.75;;;0.47;;
55069;SDS011;40967;52.070;8.596;2024-02-16T04:18:41;0.90;;;0.55;;
55069;SDS011;40967;52.070;8.596;2024-02-16T04:21:09;0.98;;;0.50;;
55069;SDS011;40967;52.070;8.596;2024-02-16T04:23:36;1.40;;;0.70;;
55069;SDS011;40967;52.070;8.596;2024-02-16T04:26:02;1.10;;;0.40;;
55069;SDS011;40967;52.070;8.596;2024-02-16T04:28:34;1.08;;;0.57;;
55069;SDS011;40967;52.070;8.596;2024-02-16T04:31:01;0.90;;;0.52;;
55069;SDS011;40967;52.070;8.596;2024-02-16T04:33:28;0.87;;;0.50;;
55069;SDS011;40967;52.070;8.596;2024-02-16T04:35:54;1.13;;;0.60;;
55069;SDS011;40967;52.070;8.596;2024-02-16T04:38:22;1.30;;;0.60;;
55069;SDS011;40967;52.070;8.596;2024-02-16T04:40:49;1.23;;;0.60;;
55069;SDS011;40967;52.070;8.596;2024-02-16T04:43:15;1.08;;;0.55;;
55069;SDS011;40967;52.070;8.596;2024-02-16T04:45:42;1.20;;;0.52;;
55069;SDS011;40967;52.070;8.596;2024-02-16T04:48:09;1.80;;;0.50;;
55069;SDS011;40967;52.070;8.596;2024-02-16T04:50:35;1.00;;;0.50;;
55069;SDS011;40967;52.070;8.596;2024-02-16T04:53:02;1.05;;;0.60;;
55069;SDS011;40967;52.070;8.596;2024-02-16T04:55:30;1.20;;;0.60;;
55069;SDS011;40967;52.070;8.596;2024-02-16T04:57:57;1.05;;;0.55;;
55069;SDS011;40967;52.070;8.596;2024-02-16T05:00:23;1.35;;;0.57;;
55069;SDS011;40967;52.070;8.596;2024-02-16T05:02:50;0.98;;;0.50;;
55069;SDS011;40967;52.070;8.596;2024-02-16T05:05:17;1.20;;;0.60;;
55069;SDS011;40967;52.070;8.596;2024-02-16T05:07:46;0.90;;;0.50;;
55069;SDS011;40967;52.070;8.596;2024-02-16T05:10:14;1.25;;;0.55;;
55069;SDS011;40967;52.070;8.596;2024-02-16T05:12:42;1.23;;;0.60;;
55069;SDS011;40967;52.070;8.596;2024-02-16T05:15:12;0.88;;;0.40;;
55069;SDS011;40967;52.070;8.596;2024-02-16T05:17:39;1.20;;;0.60;;
55069;SDS011;40967;52.070;8.596;2024-02-16T05:20:10;0.88;;;0.50;;
55069;SDS011;40967;52.070;8.596;2024-02-16T05:22:40;0.80;;;0.50;;
55069;SDS011;40967;52.070;8.596;2024-02-16T05:25:08;1.20;;;0.60;;
55069;SDS011;40967;52.070;8.596;2024-02-16T05:27:35;0.90;;;0.50;;
55069;SDS011;40967;52.070;8.596;2024-02-16T05:30:17;1.23;;;0.50;;
55069;SDS011;40967;52.070;8.596;2024-02-16T05:32:50;1.08;;;0.50;;
55069;SDS011;40967;52.070;8.596;2024-02-16T05:35:18;1.58;;;0.70;;
55069;SDS011;40967;52.070;8.596;2024-02-16T05:37:49;1.23;;;0.60;;
55069;SDS011;40967;52.070;8.596;2024-02-16T05:40:16;1.90;;;0.77;;
55069;SDS011;40967;52.070;8.596;2024-02-16T05:42:53;1.08;;;0.50;;
55069;SDS011;40967;52.070;8.596;2024-02-16T05:45:41;0.88;;;0.60;;
55069;SDS011;40967;52.070;8.596;2024-02-16T05:48:08;1.25;;;0.65;;
55069;SDS011;40967;52.070;8.596;2024-02-16T05:50:38;1.30;;;0.70;;
55069;SDS011;40967;52.070;8.596;2024-02-16T05:53:05;1.30;;;0.60;;
55069;SDS011;40967;52.070;8.596;2024-02-16T05:55:35;1.30;;;0.65;;
55069;SDS011;40967;52.070;8.596;2024-02-16T05:58:14;0.57;;;0.47;;
55069;SDS011;40967;52.070;8.596;2024-02-16T06:00:54;1.10;;;0.60;;
55069;SDS011;40967;52.070;8.596;2024-02-16T06:03:21;0.82;;;0.45;;
55069;SDS011;40967;52.070;8.596;2024-02-16T06:05:51;1.17;;;0.55;;
55069;SDS011;40967;52.070;8.596;2024-02-16T06:08:17;0.65;;;0.43;;
55069;SDS011;40967;52.070;8.596;2024-02-16T06:10:44;1.53;;;0.70;;
55069;SDS011;40967;52.070;8.596;2024-02-16T06:13:16;1.35;;;0.60;;
55069;SDS011;40967;52.070;8.596;2024-02-16T06:15:42;0.90;;;0.60;;
55069;SDS011;40967;52.070;8.596;2024-02-16T06:18:10;1.20;;;0.60;;
55069;SDS011;40967;52.070;8.596;2024-02-16T06:20:37;0.90;;;0.60;;
55069;SDS011;40967;52.070;8.596;2024-02-16T06:23:04;1.13;;;0.60;;
55069;SDS011;40967;52.070;8.596;2024-02-16T06:25:31;0.98;;;0.60;;
55069;SDS011;40967;52.070;8.596;2024-02-16T06:28:01;1.60;;;0.80;;
55069;SDS011;40967;52.070;8.596;2024-02-16T06:30:30;1.88;;;0.85;;
55069;SDS011;40967;52.070;8.596;2024-02-16T06:32:56;1.52;;;0.70;;
55069;SDS011;40967;52.070;8.596;2024-02-16T06:35:33;1.10;;;0.63;;
55069;SDS011;40967;52.070;8.596;2024-02-16T06:38:05;1.70;;;0.70;;
55069;SDS011;40967;52.070;8.596;2024-02-16T06:40:32;1.67;;;0.80;;
55069;SDS011;40967;52.070;8.596;2024-02-16T06:43:02;1.40;;;0.70;;
55069;SDS011;40967;52.070;8.596;2024-02-16T06:45:36;1.73;;;0.80;;
55069;SDS011;40967;52.070;8.596;2024-02-16T06:48:22;1.30;;;0.60;;
55069;SDS011;40967;52.070;8.596;2024-02-16T06:50:53;2.45;;;1.00;;
55069;SDS011;40967;52.070;8.596;2024-02-16T06:53:19;1.42;;;0.75;;
55069;SDS011;40967;52.070;8.596;2024-02-16T06:55:46;1.50;;;0.70;;
55069;SDS011;40967;52.070;8.596;2024-02-16T06:58:19;1.77;;;0.90;;
55069;SDS011;40967;52.070;8.596;2024-02-16T07:00:47;2.60;;;0.93;;
55069;SDS011;40967;52.070;8.596;2024-02-16T07:03:17;1.52;;;0.80;;
55069;SDS011;40967;52.070;8.596;2024-02-16T07:05:44;2.33;;;1.07;;
55069;SDS011;40967;52.070;8.596;2024-02-16T07:08:14;1.92;;;0.93;;
55069;SDS011;40967;52.070;8.596;2024-02-16T07:10:44;2.60;;;1.00;;
55069;SDS011;40967;52.070;8.596;2024-02-16T07:13:12;2.08;;;0.90;;
55069;SDS011;40967;52.070;8.596;2024-02-16T07:15:44;2.13;;;1.00;;
55069;SDS011;40967;52.070;8.596;2024-02-16T07:18:24;2.28;;;1.00;;
55069;SDS011;40967;52.070;8.596;2024-02-16T07:21:01;2.28;;;0.90;;
55069;SDS011;40967;52.070;8.596;2024-02-16T07:26:52;1.88;;;0.82;;
55069;SDS011;40967;52.070;8.596;2024-02-16T07:29:38;2.42;;;1.08;;
55069;SDS011;40967;52.070;8.596;2024-02-16T07:32:05;1.73;;;0.80;;
55069;SDS011;40967;52.070;8.596;2024-02-16T07:34:32;1.98;;;0.90;;
55069;SDS011;40967;52.070;8.596;2024-02-16T07:36:58;1.90;;;0.93;;
55069;SDS011;40967;52.070;8.596;2024-02-16T07:39:25;1.55;;;0.80;;
55069;SDS011;40967;52.070;8.596;2024-02-16T07:41:53;2.07;;;0.90;;
55069;SDS011;40967;52.070;8.596;2024-02-16T07:44:19;1.70;;;0.80;;
55069;SDS011;40967;52.070;8.596;2024-02-16T07:46:52;1.67;;;0.77;;
55069;SDS011;40967;52.070;8.596;2024-02-16T07:49:18;1.42;;;0.80;;
55069;SDS011;40967;52.070;8.596;2024-02-16T07:51:45;1.45;;;0.68;;
55069;SDS011;40967;52.070;8.596;2024-02-16T07:54:12;2.72;;;1.10;;
55069;SDS011;40967;52.070;8.596;2024-02-16T07:56:42;2.13;;;0.77;;
55069;SDS011;40967;52.070;8.596;2024-02-16T07:59:12;1.75;;;0.70;;
55069;SDS011;40967;52.070;8.596;2024-02-16T08:01:39;1.02;;;0.60;;
55069;SDS011;40967;52.070;8.596;2024-02-16T08:04:09;1.75;;;0.80;;
55069;SDS011;40967;52.070;8.596;2024-02-16T08:06:36;1.63;;;0.67;;
55069;SDS011;40967;52.070;8.596;2024-02-16T08:09:03;1.73;;;0.77;;
55069;SDS011;40967;52.070;8.596;2024-02-16T08:11:31;1.15;;;0.60;;
55069;SDS011;40967;52.070;8.596;2024-02-16T08:13:59;1.25;;;0.60;;
55069;SDS011;40967;52.070;8.596;2024-02-16T08:16:34;1.35;;;0.80;;
55069;SDS011;40967;52.070;8.596;2024-02-16T08:19:03;1.30;;;0.68;;
55069;SDS011;40967;52.070;8.596;2024-02-16T08:21:33;1.23;;;0.70;;
55069;SDS011;40967;52.070;8.596;2024-02-16T08:24:00;1.33;;;0.73;;
55069;SDS011;40967;52.070;8.596;2024-02-16T08:26:28;1.00;;;0.50;;
55069;SDS011;40967;52.070;8.596;2024-02-16T08:28:55;1.27;;;0.60;;
55069;SDS011;40967;52.070;8.596;2024-02-16T08:31:27;1.00;;;0.60;;
55069;SDS011;40967;52.070;8.596;2024-02-16T08:34:01;2.13;;;0.93;;
55069;SDS011;40967;52.070;8.596;2024-02-16T08:36:32;2.03;;;0.75;;
55069;SDS011;40967;52.070;8.596;2024-02-16T08:39:02;1.90;;;0.77;;
55069;SDS011;40967;52.070;8.596;2024-02-16T08:41:42;2.03;;;0.80;;
55069;SDS011;40967;52.070;8.596;2024-02-16T08:44:13;2.15;;;0.80;;
55069;SDS011;40967;52.070;8.596;2024-02-16T08:46:43;2.53;;;0.90;;
55069;SDS011;40967;52.070;8.596;2024-02-16T08:49:15;1.52;;;0.70;;
55069;SDS011;40967;52.070;8.596;2024-02-16T08:51:42;1.60;;;0.77;;
55069;SDS011;40967;52.070;8.596;2024-02-16T08:54:12;1.67;;;0.68;;
55069;SDS011;40967;52.070;8.596;2024-02-16T08:56:44;0.50;;;0.40;;
55069;SDS011;40967;52.070;8.596;2024-02-16T08:59:13;1.10;;;0.60;;
55069;SDS011;40967;52.070;8.596;2024-02-16T09:01:39;1.10;;;0.50;;
55069;SDS011;40967;52.070;8.596;2024-02-16T09:04:08;0.82;;;0.43;;
55069;SDS011;40967;52.070;8.596;2024-02-16T09:06:36;1.50;;;0.60;;
55069;SDS011;40967;52.070;8.596;2024-02-16T09:09:04;1.00;;;0.47;;
55069;SDS011;40967;52.070;8.596;2024-02-16T09:11:32;1.48;;;0.60;;
55069;SDS011;40967;52.070;8.596;2024-02-16T09:13:58;1.20;;;0.55;;
55069;SDS011;40967;52.070;8.596;2024-02-16T09:16:25;1.23;;;0.52;;
55069;SDS011;40967;52.070;8.596;2024-02-16T09:18:52;1.10;;;0.50;;
55069;SDS011;40967;52.070;8.596;2024-02-16T09:21:18;0.90;;;0.50;;
55069;SDS011;40967;52.070;8.596;2024-02-16T09:23:49;2.08;;;0.70;;
55069;SDS011;40967;52.070;8.596;2024-02-16T09:26:15;1.33;;;0.68;;
55069;SDS011;40967;52.070;8.596;2024-02-16T09:28:45;1.08;;;0.60;;
55069;SDS011;40967;52.070;8.596;2024-02-16T09:31:13;1.30;;;0.60;;
55069;SDS011;40967;52.070;8.596;2024-02-16T09:33:43;1.08;;;0.60;;
55069;SDS011;40967;52.070;8.596;2024-02-16T09:36:10;1.30;;;0.60;;
55069;SDS011;40967;52.070;8.596;2024-02-16T09:38:39;1.70;;;0.60;;
55069;SDS011;40967;52.070;8.596;2024-02-16T09:41:07;2.10;;;0.90;;
55069;SDS011;40967;52.070;8.596;2024-02-16T09:43:36;1.80;;;0.60;;
55069;SDS011;40967;52.070;8.596;2024-02-16T09:46:08;1.85;;;0.73;;
55069;SDS011;40967;52.070;8.596;2024-02-16T09:48:35;1.50;;;0.70;;
55069;SDS011;40967;52.070;8.596;2024-02-16T09:51:02;1.77;;;0.73;;
55069;SDS011;40967;52.070;8.596;2024-02-16T09:53:30;2.25;;;0.90;;
55069;SDS011;40967;52.070;8.596;2024-02-16T09:55:56;2.15;;;0.98;;
55069;SDS011;40967;52.070;8.596;2024-02-16T09:58:36;4.13;;;1.45;;
55069;SDS011;40967;52.070;8.596;2024-02-16T10:01:03;3.35;;;1.20;;
55069;SDS011;40967;52.070;8.596;2024-02-16T10:03:30;2.30;;;0.90;;
55069;SDS011;40967;52.070;8.596;2024-02-16T10:06:05;2.05;;;0.90;;
55069;SDS011;40967;52.070;8.596;2024-02-16T10:08:34;2.80;;;1.13;;
55069;SDS011;40967;52.070;8.596;2024-02-16T10:11:14;2.83;;;1.17;;
55069;SDS011;40967;52.070;8.596;2024-02-16T10:13:42;2.60;;;1.10;;
55069;SDS011;40967;52.070;8.596;2024-02-16T10:16:24;2.53;;;0.90;;
55069;SDS011;40967;52.070;8.596;2024-02-16T10:18:54;2.45;;;1.02;;
55069;SDS011;40967;52.070;8.596;2024-02-16T10:21:23;2.38;;;1.00;;
55069;SDS011;40967;52.070;8.596;2024-02-16T10:23:59;2.80;;;0.85;;
55069;SDS011;40967;52.070;8.596;2024-02-16T10:26:28;1.85;;;1.00;;
55069;SDS011;40967;52.070;8.596;2024-02-16T10:29:25;3.00;;;1.10;;
55069;SDS011;40967;52.070;8.596;2024-02-16T10:32:38;3.88;;;1.25;;
55069;SDS011;40967;52.070;8.596;2024-02-16T10:35:06;3.40;;;1.20;;
55069;SDS011;40967;52.070;8.596;2024-02-16T10:37:36;3.97;;;1.70;;
55069;SDS011;40967;52.070;8.596;2024-02-16T10:40:11;3.47;;;1.50;;
55069;SDS011;40967;52.070;8.596;2024-02-16T10:43:03;4.88;;;1.48;;
55069;SDS011;40967;52.070;8.596;2024-02-16T10:45:33;4.05;;;1.48;;
55069;SDS011;40967;52.070;8.596;2024-02-16T10:48:04;4.97;;;1.88;;
55069;SDS011;40967;52.070;8.596;2024-02-16T10:50:32;4.50;;;1.70;;
55069;SDS011;40967;52.070;8.596;2024-02-16T10:53:02;3.05;;;1.50;;
55069;SDS011;40967;52.070;8.596;2024-02-16T10:55:40;3.83;;;1.40;;
55069;SDS011;40967;52.070;8.596;2024-02-16T10:58:11;5.47;;;1.90;;
55069;SDS011;40967;52.070;8.596;2024-02-16T11:00:56;3.40;;;1.40;;
55069;SDS011;40967;52.070;8.596;2024-02-16T11:03:23;4.38;;;1.63;;
55069;SDS011;40967;52.070;8.596;2024-02-16T11:05:51;4.28;;;1.55;;
55069;SDS011;40967;52.070;8.596;2024-02-16T11:08:18;4.30;;;1.50;;
55069;SDS011;40967;52.070;8.596;2024-02-16T11:10:58;3.13;;;1.48;;
55069;SDS011;40967;52.070;8.596;2024-02-16T11:13:31;4.15;;;1.70;;
55069;SDS011;40967;52.070;8.596;2024-02-16T11:16:03;3.22;;;1.40;;
55069;SDS011;40967;52.070;8.596;2024-02-16T11:18:36;4.53;;;1.58;;
55069;SDS011;40967;52.070;8.596;2024-02-16T11:21:07;3.20;;;1.50;;
55069;SDS011;40967;52.070;8.596;2024-02-16T11:23:40;2.83;;;1.35;;
55069;SDS011;40967;52.070;8.596;2024-02-16T11:26:17;3.72;;;1.55;;
55069;SDS011;40967;52.070;8.596;2024-02-16T11:28:44;3.40;;;1.45;;
55069;SDS011;40967;52.070;8.596;2024-02-16T11:31:20;3.83;;;1.80;;
55069;SDS011;40967;52.070;8.596;2024-02-16T11:33:52;2.53;;;1.25;;
55069;SDS011;40967;52.070;8.596;2024-02-16T11:36:24;3.15;;;1.35;;
55069;SDS011;40967;52.070;8.596;2024-02-16T11:39:00;4.70;;;1.80;;
55069;SDS011;40967;52.070;8.596;2024-02-16T11:47:48;3.80;;;1.23;;
55069;SDS011;40967;52.070;8.596;2024-02-16T11:50:20;4.70;;;1.67;;
55069;SDS011;40967;52.070;8.596;2024-02-16T11:52:52;5.38;;;2.15;;
55069;SDS011;40967;52.070;8.596;2024-02-16T11:58:28;3.95;;;1.55;;
55069;SDS011;40967;52.070;8.596;2024-02-16T12:00:56;3.72;;;1.55;;
55069;SDS011;40967;52.070;8.596;2024-02-16T12:03:40;3.60;;;1.60;;
55069;SDS011;40967;52.070;8.596;2024-02-16T12:06:07;6.30;;;1.90;;
55069;SDS011;40967;52.070;8.596;2024-02-16T12:08:34;5.90;;;2.00;;
55069;SDS011;40967;52.070;8.596;2024-02-16T12:13:56;5.32;;;1.90;;
55069;SDS011;40967;52.070;8.596;2024-02-16T12:16:26;5.00;;;1.70;;
55069;SDS011;40967;52.070;8.596;2024-02-16T12:19:03;3.90;;;1.50;;
55069;SDS011;40967;52.070;8.596;2024-02-16T12:27:30;4.43;;;1.73;;
55069;SDS011;40967;52.070;8.596;2024-02-16T12:29:56;4.22;;;1.83;;
55069;SDS011;40967;52.070;8.596;2024-02-16T12:32:27;5.03;;;1.65;;
55069;SDS011;40967;52.070;8.596;2024-02-16T12:35:00;4.95;;;1.80;;
55069;SDS011;40967;52.070;8.596;2024-02-16T12:37:34;5.13;;;1.80;;
55069;SDS011;40967;52.070;8.596;2024-02-16T12:40:15;3.92;;;1.50;;
55069;SDS011;40967;52.070;8.596;2024-02-16T12:49:13;2.83;;;1.30;;
55069;SDS011;40967;52.070;8.596;2024-02-16T12:51:42;3.17;;;1.33;;
55069;SDS011;40967;52.070;8.596;2024-02-16T12:54:09;3.60;;;1.50;;
55069;SDS011;40967;52.070;8.596;2024-02-16T12:56:39;6.80;;;2.40;;
55069;SDS011;40967;52.070;8.596;2024-02-16T12:59:07;7.30;;;2.20;;
55069;SDS011;40967;52.070;8.596;2024-02-16T13:01:34;6.65;;;2.40;;
55069;SDS011;40967;52.070;8.596;2024-02-16T13:04:00;5.45;;;2.47;;
55069;SDS011;40967;52.070;8.596;2024-02-16T13:06:27;5.30;;;2.03;;
55069;SDS011;40967;52.070;8.596;2024-02-16T13:08:55;4.25;;;2.20;;
55069;SDS011;40967;52.070;8.596;2024-02-16T13:11:24;4.45;;;1.75;;
55069;SDS011;40967;52.070;8.596;2024-02-16T13:13:51;4.32;;;1.70;;
55069;SDS011;40967;52.070;8.596;2024-02-16T13:16:18;3.20;;;1.67;;
55069;SDS011;40967;52.070;8.596;2024-02-16T13:18:44;5.15;;;2.80;;
55069;SDS011;40967;52.070;8.596;2024-02-16T13:21:11;5.07;;;2.60;;
55069;SDS011;40967;52.070;8.596;2024-02-16T13:23:38;4.17;;;2.20;;
55069;SDS011;40967;52.070;8.596;2024-02-16T13:26:08;5.88;;;2.78;;
55069;SDS011;40967;52.070;8.596;2024-02-16T13:28:35;6.28;;;2.67;;
55069;SDS011;40967;52.070;8.596;2024-02-16T13:31:03;4.97;;;2.42;;
55069;SDS011;40967;52.070;8.596;2024-02-16T13:33:30;5.05;;;2.65;;
55069;SDS011;40967;52.070;8.596;2024-02-16T13:36:00;6.68;;;3.30;;
55069;SDS011;40967;52.070;8.596;2024-02-16T13:38:29;6.43;;;3.17;;
55069;SDS011;40967;52.070;8.596;2024-02-16T13:40:58;7.80;;;3.55;;
55069;SDS011;40967;52.070;8.596;2024-02-16T13:43:34;7.95;;;3.72;;
55069;SDS011;40967;52.070;8.596;2024-02-16T13:46:01;8.13;;;4.28;;
55069;SDS011;40967;52.070;8.596;2024-02-16T13:48:30;6.25;;;3.75;;
55069;SDS011;40967;52.070;8.596;2024-02-16T13:50:57;7.78;;;3.90;;
55069;SDS011;40967;52.070;8.596;2024-02-16T13:53:27;5.37;;;3.10;;
55069;SDS011;40967;52.070;8.596;2024-02-16T13:56:14;5.93;;;3.72;;
55069;SDS011;40967;52.070;8.596;2024-02-16T13:58:44;6.70;;;3.70;;
55069;SDS011;40967;52.070;8.596;2024-02-16T14:01:13;7.88;;;4.13;;
55069;SDS011;40967;52.070;8.596;2024-02-16T14:03:44;6.82;;;3.70;;
55069;SDS011;40967;52.070;8.596;2024-02-16T14:06:11;8.40;;;4.90;;
55069;SDS011;40967;52.070;8.596;2024-02-16T14:08:46;8.80;;;4.47;;
55069;SDS011;40967;52.070;8.596;2024-02-16T14:14:16;10.00;;;5.88;;
55069;SDS011;40967;52.070;8.596;2024-02-16T14:16:43;12.02;;;6.10;;
55069;SDS011;40967;52.070;8.596;2024-02-16T14:19:17;11.80;;;7.83;;
55069;SDS011;40967;52.070;8.596;2024-02-16T14:21:48;11.32;;;7.75;;
55069;SDS011;40967;52.070;8.596;2024-02-16T14:24:20;11.23;;;7.25;;
55069;SDS011;40967;52.070;8.596;2024-02-16T14:26:47;10.90;;;6.57;;
55069;SDS011;40967;52.070;8.596;2024-02-16T14:29:30;11.93;;;6.80;;
55069;SDS011;40967;52.070;8.596;2024-02-16T14:32:11;10.37;;;6.00;;
55069;SDS011;40967;52.070;8.596;2024-02-16T14:34:38;10.65;;;6.13;;
55069;SDS011;40967;52.070;8.596;2024-02-16T14:37:06;12.17;;;7.37;;
55069;SDS011;40967;52.070;8.596;2024-02-16T14:39:33;9.73;;;5.80;;
55069;SDS011;40967;52.070;8.596;2024-02-16T14:42:05;8.70;;;5.78;;
55069;SDS011;40967;52.070;8.596;2024-02-16T14:44:46;10.43;;;6.85;;
55069;SDS011;40967;52.070;8.596;2024-02-16T14:47:13;13.95;;;7.95;;
55069;SDS011;40967;52.070;8.596;2024-02-16T14:49:42;12.02;;;7.10;;
55069;SDS011;40967;52.070;8.596;2024-02-16T14:52:11;12.43;;;6.47;;
55069;SDS011;40967;52.070;8.596;2024-02-16T14:54:38;12.82;;;7.10;;
55069;SDS011;40967;52.070;8.596;2024-02-16T14:57:08;10.38;;;6.88;;
55069;SDS011;40967;52.070;8.596;2024-02-16T14:59:35;15.57;;;8.67;;
55069;SDS011;40967;52.070;8.596;2024-02-16T15:02:05;11.45;;;8.07;;
55069;SDS011;40967;52.070;8.596;2024-02-16T15:04:33;12.55;;;7.88;;
55069;SDS011;40967;52.070;8.596;2024-02-16T15:07:01;14.70;;;9.20;;
55069;SDS011;40967;52.070;8.596;2024-02-16T15:09:27;11.37;;;7.57;;
55069;SDS011;40967;52.070;8.596;2024-02-16T15:11:54;10.38;;;7.63;;
55069;SDS011;40967;52.070;8.596;2024-02-16T15:14:20;8.52;;;6.50;;
55069;SDS011;40967;52.070;8.596;2024-02-16T15:16:47;9.68;;;6.55;;
55069;SDS011;40967;52.070;8.596;2024-02-16T15:19:15;8.40;;;6.00;;
55069;SDS011;40967;52.070;8.596;2024-02-16T15:21:45;9.20;;;5.78;;
55069;SDS011;40967;52.070;8.596;2024-02-16T15:24:15;9.73;;;6.10;;
55069;SDS011;40967;52.070;8.596;2024-02-16T15:26:42;15.38;;;9.02;;
55069;SDS011;40967;52.070;8.596;2024-02-16T15:29:08;10.18;;;7.20;;
55069;SDS011;40967;52.070;8.596;2024-02-16T15:31:35;9.53;;;6.50;;